createdAt,value
2018-02-15T00:03:07.743Z,3.00
2018-02-15T00:08:10.855Z,3.10
2018-02-15T00:13:13.981Z,3.00
2018-02-15T00:18:17.079Z,3.00
2018-02-15T00:23:20.207Z,3.10
2018-02-15T00:28:24.090Z,3.10
2018-02-15T00:33:27.595Z,3.00
2018-02-15T00:38:31.500Z,3.10
2018-02-15T00:43:35.424Z,3.10
2018-02-15T00:48:38.996Z,3.10
2018-02-15T00:53:42.070Z,3.10
2018-02-15T00:58:45.161Z,3.20
2018-02-15T01:08:53.446Z,3.20
2018-02-15T01:13:56.524Z,3.20
2018-02-15T01:18:59.992Z,3.20
2018-02-15T01:24:04.200Z,3.20
2018-02-15T01:29:08.046Z,3.20
2018-02-15T01:34:11.123Z,3.10
2018-02-15T01:39:14.206Z,3.20
2018-02-15T01:49:22.486Z,3.10
2018-02-15T01:54:25.559Z,3.10
2018-02-15T01:59:30.147Z,3.10
2018-02-15T02:09:38.055Z,3.10
2018-02-15T02:14:41.150Z,3.10
2018-02-15T02:19:44.227Z,3.10
2018-02-15T02:24:47.316Z,3.10
2018-02-15T02:34:56.334Z,3.20
2018-02-15T02:40:00.184Z,3.10
2018-02-15T02:45:03.267Z,3.10
2018-02-15T02:50:06.339Z,3.20
2018-02-15T02:55:10.196Z,3.30
2018-02-15T03:00:13.271Z,3.20
2018-02-15T03:10:22.299Z,3.30
2018-02-15T03:15:25.401Z,3.30
2018-02-15T03:20:29.235Z,3.30
2018-02-15T03:25:32.312Z,3.30
2018-02-15T03:30:36.197Z,3.30
2018-02-15T03:35:39.670Z,3.30
2018-02-15T03:40:43.537Z,3.20
2018-02-15T04:01:00.346Z,2.90
2018-02-15T04:06:04.568Z,2.90
2018-02-15T04:11:08.433Z,2.70
2018-02-15T04:16:12.676Z,2.50
2018-02-15T04:26:20.634Z,2.00
2018-02-15T04:41:32.556Z,1.30
2018-02-15T04:46:36.427Z,1.10
2018-02-15T04:51:40.644Z,0.90
2018-02-15T04:56:44.515Z,0.80
2018-02-15T05:11:57.323Z,0.60
2018-02-15T05:22:04.836Z,0.70
2018-02-15T05:32:14.999Z,0.70
2018-02-15T05:37:18.082Z,0.60
2018-02-15T05:42:21.159Z,0.60
2018-02-15T05:52:32.314Z,0.70
2018-02-15T05:57:35.790Z,0.70
2018-02-15T06:02:39.646Z,0.60
2018-02-15T06:12:47.163Z,0.70
2018-02-15T06:17:50.646Z,0.70
2018-02-15T06:22:54.863Z,0.70
2018-02-15T06:27:58.014Z,0.80
2018-02-15T06:38:05.506Z,0.90
2018-02-15T06:43:08.586Z,0.90
2018-02-15T06:58:20.956Z,1.10
2018-02-15T07:03:25.546Z,1.10
2018-02-15T07:08:29.771Z,1.20
2018-02-15T07:13:34.363Z,1.30
2018-02-15T07:23:41.891Z,1.30
2018-02-15T07:28:44.983Z,1.30
2018-02-15T07:33:48.823Z,1.30
2018-02-15T07:38:52.673Z,1.40
2018-02-15T07:54:04.613Z,1.50
2018-02-15T07:59:07.708Z,1.60
2018-02-15T08:09:16.031Z,1.60
2018-02-15T08:14:19.108Z,1.60
2018-02-15T08:19:22.207Z,1.60
2018-02-15T08:24:25.295Z,1.70
2018-02-15T08:29:28.774Z,1.70
2018-02-15T08:34:32.255Z,1.80
2018-02-15T08:39:35.727Z,1.80
2018-02-15T08:44:39.942Z,1.80
2018-02-15T08:49:43.795Z,1.80
2018-02-15T08:54:46.876Z,1.80
2018-02-15T08:59:50.720Z,1.80
2018-02-15T09:09:58.619Z,2.10
2018-02-15T09:15:01.708Z,2.10
2018-02-15T09:20:04.781Z,2.10
2018-02-15T09:25:08.623Z,2.20
2018-02-15T09:35:16.150Z,2.20
2018-02-15T09:45:24.056Z,2.40
2018-02-15T09:50:27.151Z,2.50
2018-02-15T09:55:30.228Z,2.60
2018-02-15T10:00:34.075Z,2.70
2018-02-15T10:05:37.157Z,2.60
2018-02-15T10:10:41.013Z,2.70
2018-02-15T10:15:44.086Z,2.70
2018-02-15T10:25:51.990Z,2.90
2018-02-15T10:30:55.075Z,2.90
2018-02-15T10:35:58.914Z,2.90
2018-02-15T10:41:01.990Z,2.80
2018-02-15T10:46:05.066Z,2.80
2018-02-15T10:51:08.197Z,2.90
2018-02-15T11:01:21.971Z,3.00
2018-02-15T11:06:25.440Z,3.10
2018-02-15T11:11:28.523Z,3.20
2018-02-15T11:16:31.994Z,3.20
2018-02-15T11:21:35.078Z,3.30
2018-02-15T11:26:38.151Z,3.40
2018-02-15T11:31:41.227Z,3.40
2018-02-15T11:36:44.310Z,3.50
2018-02-15T11:41:47.387Z,3.50
2018-02-15T11:46:51.230Z,3.50
2018-02-15T11:51:54.323Z,3.60
2018-02-15T11:56:57.394Z,3.70
2018-02-15T12:07:05.562Z,3.80
2018-02-15T12:17:14.578Z,3.90
2018-02-15T12:22:18.804Z,4.00
2018-02-15T12:27:21.876Z,4.10
2018-02-15T12:42:35.354Z,4.30
2018-02-15T12:52:43.637Z,4.50
2018-02-15T12:57:47.878Z,4.70
2018-02-15T13:02:52.470Z,4.80
2018-02-15T13:07:55.559Z,4.80
2018-02-15T13:13:16.570Z,4.80
2018-02-15T13:18:20.422Z,4.80
2018-02-15T13:23:23.533Z,4.80
2018-02-15T13:28:38.753Z,4.90
2018-02-15T13:33:42.586Z,4.90
2018-02-15T13:38:45.695Z,5.00
2018-02-15T13:43:49.159Z,5.00
2018-02-15T13:48:52.615Z,5.00
2018-02-15T13:53:55.746Z,5.10
2018-02-15T13:58:58.820Z,5.20
2018-02-15T14:04:02.710Z,5.20
2018-02-15T14:09:05.742Z,5.20
2018-02-15T14:14:08.815Z,5.20
2018-02-15T14:24:16.751Z,5.30
2018-02-15T14:29:20.641Z,5.20
2018-02-15T14:39:28.146Z,5.30
2018-02-15T14:44:31.615Z,5.30
2018-02-15T14:49:34.694Z,5.40
2018-02-15T14:54:37.766Z,5.40
2018-02-15T15:04:46.039Z,5.40
2018-02-15T15:09:49.496Z,5.50
2018-02-15T15:14:52.974Z,5.50
2018-02-15T15:19:56.815Z,5.50
2018-02-15T15:24:59.903Z,5.40
2018-02-15T15:35:07.427Z,5.20
2018-02-15T15:40:10.894Z,5.30
2018-02-15T15:45:13.965Z,5.20
2018-02-15T15:50:17.806Z,5.20
2018-02-15T15:55:20.899Z,5.10
2018-02-15T16:00:24.777Z,5.10
2018-02-15T16:05:27.838Z,5.10
2018-02-15T16:10:32.062Z,5.10
2018-02-15T16:15:36.294Z,5.10
2018-02-15T16:20:40.738Z,5.10
2018-02-15T16:25:44.249Z,5.10
2018-02-15T16:30:48.381Z,5.10
2018-02-15T16:40:56.298Z,5.20
2018-02-15T16:45:59.362Z,5.20
2018-02-15T16:51:03.214Z,5.30
2018-02-15T16:56:06.293Z,5.30
2018-02-15T17:01:10.874Z,5.30
2018-02-15T17:06:15.015Z,5.40
2018-02-15T17:11:18.481Z,5.40
2018-02-15T17:16:22.278Z,5.60
2018-02-15T17:21:26.120Z,5.70
2018-02-15T17:31:34.747Z,5.60
2018-02-15T17:36:37.834Z,5.50
2018-02-15T17:41:40.931Z,5.40
2018-02-15T17:51:49.363Z,5.20
2018-02-15T18:01:58.123Z,5.20
2018-02-15T18:07:02.357Z,5.10
2018-02-15T18:12:06.556Z,5.10
2018-02-15T18:22:16.968Z,5.00
2018-02-15T18:32:24.507Z,4.90
2018-02-15T18:37:28.355Z,5.00
2018-02-15T18:42:31.427Z,5.10
2018-02-15T18:47:34.535Z,5.10
2018-02-15T18:52:37.626Z,5.20
2018-02-15T19:02:45.518Z,5.10
2018-02-15T19:07:49.384Z,4.90
2018-02-15T19:12:53.614Z,5.00
2018-02-15T19:17:56.686Z,5.00
2018-02-15T19:22:59.770Z,5.00
2018-02-15T19:28:03.697Z,5.10
2018-02-15T19:33:07.883Z,5.10
2018-02-15T19:38:11.757Z,5.00
2018-02-15T19:43:14.854Z,5.00
2018-02-15T19:53:31.290Z,5.00
2018-02-15T19:58:35.866Z,5.00
2018-02-15T20:03:39.468Z,5.00
2018-02-15T20:08:45.007Z,5.00
2018-02-15T20:13:48.855Z,5.10
2018-02-15T20:18:52.742Z,5.10
2018-02-15T20:23:55.814Z,5.20
2018-02-15T20:28:59.654Z,5.20
2018-02-15T20:34:03.506Z,5.20
2018-02-15T20:39:12.487Z,5.20
2018-02-15T20:44:15.811Z,5.20
2018-02-15T20:49:24.632Z,5.20
2018-02-15T20:54:33.976Z,5.20
2018-02-15T20:59:37.059Z,5.20
2018-02-15T21:04:40.173Z,5.10
2018-02-15T21:09:43.231Z,4.90
2018-02-15T21:14:47.081Z,4.80
2018-02-15T21:19:50.166Z,4.70
2018-02-15T21:24:53.282Z,4.50
2018-02-15T21:29:56.431Z,4.40
2018-02-15T21:35:01.200Z,4.20
2018-02-15T21:40:05.074Z,4.00
2018-02-15T21:45:08.270Z,3.90
2018-02-15T21:50:11.531Z,3.80
2018-02-15T21:55:17.525Z,3.80
2018-02-15T22:00:20.754Z,3.80
2018-02-15T22:05:24.750Z,3.70
2018-02-15T22:10:28.586Z,3.50
2018-02-15T22:15:31.694Z,3.40
2018-02-15T22:25:40.091Z,3.10
2018-02-15T22:30:44.004Z,3.00
2018-02-15T22:35:47.452Z,3.00
2018-02-15T22:40:50.554Z,2.80
2018-02-15T22:50:59.639Z,2.60
2018-02-15T22:56:04.163Z,2.50
2018-02-15T23:01:07.718Z,2.30
2018-02-15T23:06:10.884Z,2.20
2018-02-15T23:11:14.050Z,2.10
2018-02-15T23:16:18.292Z,2.10
2018-02-15T23:21:22.146Z,2.00
2018-02-15T23:26:26.370Z,2.10
2018-02-15T23:31:29.830Z,2.20
2018-02-15T23:36:33.303Z,2.10
2018-02-15T23:41:38.285Z,2.00
2018-02-15T23:46:41.410Z,1.90
2018-02-15T23:51:45.250Z,1.80
2018-02-15T23:56:49.001Z,1.70
